Normand Flipper — 9V6929 — position and weather

sailwx.info

Track history (hours):
 
Tides and Currents Weather Stations Pressure Air Temp Water Temp Dewpoint Dewpoint Depression Visibility Wind Speed Wind Dir Waves Ship Positions

Normand Flipper

Last reported at 2016-Dec-07 04:33 UTC. Time now 2016-Dec-09 23:21 UTC.
Position N 57°32' W 001°41'.

Length 89 m; draft 5.1 m.

Type: Other ship. MMSI: 566522000.

Date/timePositionNaut miles runAvg speedWind from/ knotsBaromVisibWave heightAir tempDewpointWater temp
2016-Dec-07 04:33N 57°32' W 001°41'13 9.1
2016-Dec-07 03:05N 57°19' W 001°49'510.1
2016-Dec-07 02:33N 57°15' W 001°55'8 8.2
2016-Dec-07 01:33N 57°09' W 002°04'0 0.0
2016-Dec-07 00:33N 57°09' W 002°04'0 0.2
2016-Dec-06 23:33N 57°08' W 002°05'0 0.0
2016-Dec-06 22:33N 57°08' W 002°05'0 0.0
2016-Dec-06 21:33N 57°08' W 002°05'0 0.0
2016-Dec-06 20:33N 57°09' W 002°05'0 0.1
2016-Dec-06 18:33N 57°08' W 002°05'0 0.0
2016-Dec-06 17:30N 57°08' W 002°05'0 0.0
2016-Dec-06 16:33N 57°08' W 002°05'0 0.0
2016-Dec-06 15:33N 57°08' W 002°05'0 0.0
2016-Dec-06 14:33N 57°08' W 002°05'0 0.0
2016-Dec-06 13:33N 57°08' W 002°05'0 0.0
2016-Dec-06 12:33N 57°08' W 002°05'0 0.0
2016-Dec-06 11:30N 57°08' W 002°05'0 0.0
2016-Dec-06 10:30N 57°08' W 002°05'0 0.0
2016-Dec-06 09:33N 57°08' W 002°05'0 0.0
2016-Dec-06 08:33N 57°08' W 002°05'0 0.0
2016-Dec-06 07:33N 57°08' W 002°05'0 0.0
2016-Dec-06 06:33N 57°08' W 002°05'0 0.0
2016-Dec-06 05:33N 57°08' W 002°05'1 1.2
2016-Dec-06 04:33N 57°09' W 002°03'2 2.3
2016-Dec-06 03:33N 57°11' W 002°00'0 0.0
2016-Dec-06 02:33N 57°11' W 002°00'4 3.7
2016-Dec-06 01:33N 57°14' W 001°56'1110.3
2016-Dec-06 00:30N 57°23' W 001°46'9 9.5
2016-Dec-05 23:33N 57°32' W 001°41'3 0.1
2016-Dec-04 22:30N 57°35' W 001°42'1613.7
2016-Dec-04 21:22N 57°20' W 001°49'1113.9
2016-Dec-04 20:34N 57°10' W 002°00'3 3.1
2016-Dec-04 19:33N 57°08' W 002°05'0 0.0
2016-Dec-04 18:33N 57°08' W 002°05'0 0.1
2016-Dec-04 17:31N 57°08' W 002°05'0 0.0
2016-Dec-04 16:31N 57°08' W 002°05'0 0.0
2016-Dec-04 15:31N 57°08' W 002°05'0 0.0
2016-Dec-04 14:31N 57°08' W 002°05'0 0.0
2016-Dec-04 13:31N 57°08' W 002°05'0 0.0
2016-Dec-04 12:31N 57°08' W 002°05'0 0.0
2016-Dec-04 11:32N 57°08' W 002°05'4 3.9
2016-Dec-04 10:33N 57°11' W 001°59'10 9.6
2016-Dec-04 09:33N 57°19' W 001°50'9 9.4
2016-Dec-04 08:33N 57°27' W 001°41'9 9.3
2016-Dec-04 07:33N 57°36' W 001°41'  
2016-Dec-02 01:33N 57°31' W 001°41'12 8.4
2016-Dec-02 00:10N 57°20' W 001°49'6 9.7
2016-Dec-01 23:34N 57°15' W 001°54'9 9.0
2016-Dec-01 22:33N 57°08' W 002°05'0 0.0
2016-Dec-01 21:34N 57°08' W 002°05'0 0.0
2016-Dec-01 20:33N 57°08' W 002°05'0 0.0
2016-Dec-01 19:33N 57°08' W 002°05'0 0.0
2016-Dec-01 18:33N 57°08' W 002°05'0 0.0
2016-Dec-01 17:33N 57°08' W 002°05'0 0.0
2016-Dec-01 16:30N 57°08' W 002°05'0 0.0
2016-Dec-01 15:33N 57°08' W 002°05'0 0.0
2016-Dec-01 14:33N 57°08' W 002°05'0 0.0
2016-Dec-01 13:33N 57°08' W 002°05'0 0.0
2016-Dec-01 12:33N 57°08' W 002°05'0 0.0
2016-Dec-01 11:33N 57°08' W 002°05'0 0.0
2016-Dec-01 10:33N 57°08' W 002°05'0 0.0
2016-Dec-01 09:33N 57°08' W 002°05'0 0.0
2016-Dec-01 08:30N 57°08' W 002°05'0 0.0
2016-Dec-01 07:33N 57°08' W 002°05'0 0.0
2016-Dec-01 06:30N 57°08' W 002°05'0 0.0
2016-Dec-01 05:33N 57°08' W 002°05'0 0.0
2016-Dec-01 04:33N 57°08' W 002°05'0 0.0
2016-Dec-01 03:33N 57°08' W 002°05'0 0.0
2016-Dec-01 02:33N 57°08' W 002°05'0 0.0
2016-Dec-01 01:33N 57°08' W 002°05'0 0.1
2016-Dec-01 00:33N 57°08' W 002°05'0 0.0
2016-Nov-30 23:30N 57°08' W 002°05'0 0.0
2016-Nov-30 22:33N 57°08' W 002°05'0 0.0
2016-Nov-30 21:33N 57°08' W 002°05'0 0.0
2016-Nov-30 20:33N 57°08' W 002°05'0 0.0
2016-Nov-30 19:33N 57°08' W 002°05'0 0.0
2016-Nov-30 18:33N 57°08' W 002°05'0 0.0
2016-Nov-30 17:33N 57°08' W 002°05'0 0.0
2016-Nov-30 16:33N 57°08' W 002°05'0 0.0
2016-Nov-30 15:33N 57°08' W 002°05'0 0.0
2016-Nov-30 14:33N 57°08' W 002°05'0 0.0
2016-Nov-30 13:33N 57°08' W 002°05'0 0.0
2016-Nov-30 12:33N 57°08' W 002°05'3 3.0
2016-Nov-30 11:33N 57°10' W 002°01'1 0.9
2016-Nov-30 10:33N 57°11' W 002°00'0 0.0
2016-Nov-30 09:33N 57°11' W 002°00'0 0.0
2016-Nov-30 08:33N 57°11' W 002°00'0 0.0
2016-Nov-30 07:33N 57°11' W 002°00'0 0.0
2016-Nov-30 06:33N 57°11' W 002°00'0 0.0
2016-Nov-30 05:33N 57°11' W 002°00'0 0.0
2016-Nov-30 04:33N 57°11' W 002°00'0 0.0
2016-Nov-30 03:33N 57°11' W 002°00'0 0.0
2016-Nov-30 02:33N 57°11' W 002°00'0 0.0
2016-Nov-30 01:33N 57°11' W 002°00'0 0.0
2016-Nov-30 00:33N 57°11' W 002°00'8 7.6
2016-Nov-29 23:32N 57°17' W 001°52'1010.2
2016-Nov-29 22:33N 57°26' W 001°43'10 9.9
2016-Nov-29 21:32N 57°36' W 001°41'1 0.0
2016-Nov-28 15:16N 57°35' W 001°41'910.9
2016-Nov-28 14:27N 57°27' W 001°42'1010.6
2016-Nov-28 13:31N 57°18' W 001°51'1010.2
2016-Nov-28 12:33N 57°10' W 002°01'1 0.9
2016-Nov-28 11:33N 57°09' W 002°02'8 8.1
2016-Nov-28 10:33N 57°16' W 001°53'1111.3
2016-Nov-28 09:33N 57°25' W 001°43'10 0.9
2016-Nov-27 23:10N 57°35' W 001°42'5 8.8
2016-Nov-27 22:33N 57°30' W 001°42'10 9.0
2016-Nov-27 21:27N 57°20' W 001°48'910.0
2016-Nov-27 20:33N 57°13' W 001°57'6 6.0
2016-Nov-27 19:33N 57°08' W 002°05'0 0.0
2016-Nov-27 18:30N 57°08' W 002°05'0 0.0
2016-Nov-27 17:33N 57°08' W 002°05'0 0.0
2016-Nov-27 16:33N 57°08' W 002°05'0 0.4
2016-Nov-27 15:33N 57°09' W 002°04'0 0.0
2016-Nov-27 14:31N 57°09' W 002°04'0 0.0
2016-Nov-27 13:31N 57°09' W 002°04'0 0.0
2016-Nov-27 12:28N 57°09' W 002°04'0 0.0
2016-Nov-27 11:31N 57°09' W 002°04'0 0.0
2016-Nov-27 10:31N 57°09' W 002°04'0 0.0
2016-Nov-27 09:31N 57°09' W 002°04'0 0.2
2016-Nov-27 08:31N 57°08' W 002°05'0 0.0
2016-Nov-27 07:31N 57°08' W 002°05'0 0.0
2016-Nov-27 06:31N 57°08' W 002°05'0 0.0
2016-Nov-27 05:31N 57°08' W 002°05'  
Track history (hours):
 
Tides and Currents Weather Stations Pressure Air Temp Water Temp Dewpoint Dewpoint Depression Visibility Wind Speed Wind Dir Waves Ship Positions

Normand Flipper

Last reported at 2016-Dec-07 04:33 UTC. Time now 2016-Dec-09 23:21 UTC.
Position N 57°32' W 001°41'.

Length 89 m; draft 5.1 m.

Type: Other ship. MMSI: 566522000.

Date/timePositionNaut miles runAvg speedWind from/ knotsBaromVisibWave heightAir tempDewpointWater temp
2016-Dec-07 04:33N 57°32' W 001°41'13 9.1
2016-Dec-07 03:05N 57°19' W 001°49'510.1
2016-Dec-07 02:33N 57°15' W 001°55'8 8.2
2016-Dec-07 01:33N 57°09' W 002°04'0 0.0
2016-Dec-07 00:33N 57°09' W 002°04'0 0.2
2016-Dec-06 23:33N 57°08' W 002°05'0 0.0
2016-Dec-06 22:33N 57°08' W 002°05'0 0.0
2016-Dec-06 21:33N 57°08' W 002°05'0 0.0
2016-Dec-06 20:33N 57°09' W 002°05'0 0.1
2016-Dec-06 18:33N 57°08' W 002°05'0 0.0
2016-Dec-06 17:30N 57°08' W 002°05'0 0.0
2016-Dec-06 16:33N 57°08' W 002°05'0 0.0
2016-Dec-06 15:33N 57°08' W 002°05'0 0.0
2016-Dec-06 14:33N 57°08' W 002°05'0 0.0
2016-Dec-06 13:33N 57°08' W 002°05'0 0.0
2016-Dec-06 12:33N 57°08' W 002°05'0 0.0
2016-Dec-06 11:30N 57°08' W 002°05'0 0.0
2016-Dec-06 10:30N 57°08' W 002°05'0 0.0
2016-Dec-06 09:33N 57°08' W 002°05'0 0.0
2016-Dec-06 08:33N 57°08' W 002°05'0 0.0
2016-Dec-06 07:33N 57°08' W 002°05'0 0.0
2016-Dec-06 06:33N 57°08' W 002°05'0 0.0
2016-Dec-06 05:33N 57°08' W 002°05'1 1.2
2016-Dec-06 04:33N 57°09' W 002°03'2 2.3
2016-Dec-06 03:33N 57°11' W 002°00'0 0.0
2016-Dec-06 02:33N 57°11' W 002°00'4 3.7
2016-Dec-06 01:33N 57°14' W 001°56'1110.3
2016-Dec-06 00:30N 57°23' W 001°46'9 9.5
2016-Dec-05 23:33N 57°32' W 001°41'3 0.1
2016-Dec-04 22:30N 57°35' W 001°42'1613.7
2016-Dec-04 21:22N 57°20' W 001°49'1113.9
2016-Dec-04 20:34N 57°10' W 002°00'3 3.1
2016-Dec-04 19:33N 57°08' W 002°05'0 0.0
2016-Dec-04 18:33N 57°08' W 002°05'0 0.1
2016-Dec-04 17:31N 57°08' W 002°05'0 0.0
2016-Dec-04 16:31N 57°08' W 002°05'0 0.0
2016-Dec-04 15:31N 57°08' W 002°05'0 0.0
2016-Dec-04 14:31N 57°08' W 002°05'0 0.0
2016-Dec-04 13:31N 57°08' W 002°05'0 0.0
2016-Dec-04 12:31N 57°08' W 002°05'0 0.0
2016-Dec-04 11:32N 57°08' W 002°05'4 3.9
2016-Dec-04 10:33N 57°11' W 001°59'10 9.6
2016-Dec-04 09:33N 57°19' W 001°50'9 9.4
2016-Dec-04 08:33N 57°27' W 001°41'9 9.3
2016-Dec-04 07:33N 57°36' W 001°41'  
2016-Dec-02 01:33N 57°31' W 001°41'12 8.4
2016-Dec-02 00:10N 57°20' W 001°49'6 9.7
2016-Dec-01 23:34N 57°15' W 001°54'9 9.0
2016-Dec-01 22:33N 57°08' W 002°05'0 0.0
2016-Dec-01 21:34N 57°08' W 002°05'0 0.0
2016-Dec-01 20:33N 57°08' W 002°05'0 0.0
2016-Dec-01 19:33N 57°08' W 002°05'0 0.0
2016-Dec-01 18:33N 57°08' W 002°05'0 0.0
2016-Dec-01 17:33N 57°08' W 002°05'0 0.0
2016-Dec-01 16:30N 57°08' W 002°05'0 0.0
2016-Dec-01 15:33N 57°08' W 002°05'0 0.0
2016-Dec-01 14:33N 57°08' W 002°05'0 0.0
2016-Dec-01 13:33N 57°08' W 002°05'0 0.0
2016-Dec-01 12:33N 57°08' W 002°05'0 0.0
2016-Dec-01 11:33N 57°08' W 002°05'0 0.0
2016-Dec-01 10:33N 57°08' W 002°05'0 0.0
2016-Dec-01 09:33N 57°08' W 002°05'0 0.0
2016-Dec-01 08:30N 57°08' W 002°05'0 0.0
2016-Dec-01 07:33N 57°08' W 002°05'0 0.0
2016-Dec-01 06:30N 57°08' W 002°05'0 0.0
2016-Dec-01 05:33N 57°08' W 002°05'0 0.0
2016-Dec-01 04:33N 57°08' W 002°05'0 0.0
2016-Dec-01 03:33N 57°08' W 002°05'0 0.0
2016-Dec-01 02:33N 57°08' W 002°05'0 0.0
2016-Dec-01 01:33N 57°08' W 002°05'0 0.1
2016-Dec-01 00:33N 57°08' W 002°05'0 0.0
2016-Nov-30 23:30N 57°08' W 002°05'0 0.0
2016-Nov-30 22:33N 57°08' W 002°05'0 0.0
2016-Nov-30 21:33N 57°08' W 002°05'0 0.0
2016-Nov-30 20:33N 57°08' W 002°05'0 0.0
2016-Nov-30 19:33N 57°08' W 002°05'0 0.0
2016-Nov-30 18:33N 57°08' W 002°05'0 0.0
2016-Nov-30 17:33N 57°08' W 002°05'0 0.0
2016-Nov-30 16:33N 57°08' W 002°05'0 0.0
2016-Nov-30 15:33N 57°08' W 002°05'0 0.0
2016-Nov-30 14:33N 57°08' W 002°05'0 0.0
2016-Nov-30 13:33N 57°08' W 002°05'0 0.0
2016-Nov-30 12:33N 57°08' W 002°05'3 3.0
2016-Nov-30 11:33N 57°10' W 002°01'1 0.9
2016-Nov-30 10:33N 57°11' W 002°00'0 0.0
2016-Nov-30 09:33N 57°11' W 002°00'0 0.0
2016-Nov-30 08:33N 57°11' W 002°00'0 0.0
2016-Nov-30 07:33N 57°11' W 002°00'0 0.0
2016-Nov-30 06:33N 57°11' W 002°00'0 0.0
2016-Nov-30 05:33N 57°11' W 002°00'0 0.0
2016-Nov-30 04:33N 57°11' W 002°00'0 0.0
2016-Nov-30 03:33N 57°11' W 002°00'0 0.0
2016-Nov-30 02:33N 57°11' W 002°00'0 0.0
2016-Nov-30 01:33N 57°11' W 002°00'0 0.0
2016-Nov-30 00:33N 57°11' W 002°00'8 7.6
2016-Nov-29 23:32N 57°17' W 001°52'1010.2
2016-Nov-29 22:33N 57°26' W 001°43'10 9.9
2016-Nov-29 21:32N 57°36' W 001°41'1 0.0
2016-Nov-28 15:16N 57°35' W 001°41'910.9
2016-Nov-28 14:27N 57°27' W 001°42'1010.6
2016-Nov-28 13:31N 57°18' W 001°51'1010.2
2016-Nov-28 12:33N 57°10' W 002°01'1 0.9
2016-Nov-28 11:33N 57°09' W 002°02'8 8.1
2016-Nov-28 10:33N 57°16' W 001°53'1111.3
2016-Nov-28 09:33N 57°25' W 001°43'10 0.9
2016-Nov-27 23:10N 57°35' W 001°42'5 8.8
2016-Nov-27 22:33N 57°30' W 001°42'10 9.0
2016-Nov-27 21:27N 57°20' W 001°48'910.0
2016-Nov-27 20:33N 57°13' W 001°57'6 6.0
2016-Nov-27 19:33N 57°08' W 002°05'0 0.0
2016-Nov-27 18:30N 57°08' W 002°05'0 0.0
2016-Nov-27 17:33N 57°08' W 002°05'0 0.0
2016-Nov-27 16:33N 57°08' W 002°05'0 0.4
2016-Nov-27 15:33N 57°09' W 002°04'0 0.0
2016-Nov-27 14:31N 57°09' W 002°04'0 0.0
2016-Nov-27 13:31N 57°09' W 002°04'0 0.0
2016-Nov-27 12:28N 57°09' W 002°04'0 0.0
2016-Nov-27 11:31N 57°09' W 002°04'0 0.0
2016-Nov-27 10:31N 57°09' W 002°04'0 0.0
2016-Nov-27 09:31N 57°09' W 002°04'0 0.2
2016-Nov-27 08:31N 57°08' W 002°05'0 0.0
2016-Nov-27 07:31N 57°08' W 002°05'0 0.0
2016-Nov-27 06:31N 57°08' W 002°05'0 0.0
2016-Nov-27 05:31N 57°08' W 002°05'  

Dump ship's entire track history